Time;durP1;ratioP1;P1;durP2;ratioP2;P2;SDS_P1;SDS_P2;PMS_P1;PMS_P2;Temp;Humidity;BMP_temperature;BMP_pressure;BME280_temperature;BME280_humidity;BME280_pressure;Samples;Min_cycle;Max_cycle;Signal;HPM_P1;HPM_P2
2023/04/14 00:00:22;;;;;;;17.30;11.65;;;;;;;7.47;82.46;100772.59;5241781;28;20479;-68
2023/04/14 00:02:53;;;;;;;17.67;11.02;;;;;;;7.43;82.91;100764.19;5242879;28;20329;-69
2023/04/14 00:05:31;;;;;;;14.82;11.20;;;;;;;7.53;82.98;100759.09;5238296;28;20127;-68
2023/04/14 00:08:02;;;;;;;18.65;12.05;;;;;;;7.47;81.95;100765.63;5241135;28;20068;-68
2023/04/14 00:10:33;;;;;;;14.10;10.25;;;;;;;7.36;83.21;100759.53;5241209;28;20463;-68
2023/04/14 00:13:04;;;;;;;14.68;10.02;;;;;;;7.41;82.70;100762.63;5242675;28;20067;-68
2023/04/14 00:15:36;;;;;;;16.08;10.70;;;;;;;7.40;82.52;100756.56;5242481;28;20032;-68
2023/04/14 00:18:07;;;;;;;15.88;10.70;;;;;;;7.36;80.54;100759.53;5237190;28;20108;-68
2023/04/14 00:20:38;;;;;;;17.90;9.82;;;;;;;7.39;80.37;100761.91;5239676;28;20435;-68
2023/04/14 00:23:10;;;;;;;14.00;9.85;;;;;;;7.37;80.74;100755.97;5242127;28;20483;-68
2023/04/14 00:25:41;;;;;;;17.30;10.18;;;;;;;7.29;84.82;100757.34;5243080;28;20082;-68
2023/04/14 00:28:12;;;;;;;12.05;8.20;;;;;;;7.25;82.14;100765.50;5240127;28;20041;-68
2023/04/14 00:30:44;;;;;;;13.48;8.63;;;;;;;7.21;83.49;100772.72;5240723;28;20037;-68
2023/04/14 00:33:15;;;;;;;14.25;7.53;;;;;;;7.16;81.37;100769.63;5240299;28;20396;-68
2023/04/14 00:35:46;;;;;;;11.25;6.75;;;;;;;7.14;82.48;100768.88;5244542;28;20538;-68
2023/04/14 00:38:17;;;;;;;14.13;7.00;;;;;;;7.05;82.67;100770.38;5243752;28;20115;-67
2023/04/14 00:40:49;;;;;;;12.55;6.88;;;;;;;7.08;82.82;100771.91;5229103;28;20606;-68
2023/04/14 00:43:20;;;;;;;10.95;6.82;;;;;;;7.01;82.71;100770.72;5241591;28;20543;-69
2023/04/14 00:45:53;;;;;;;12.73;6.80;;;;;;;7.04;83.39;100773.91;5244298;28;20035;-68
2023/04/14 00:48:24;;;;;;;9.93;6.40;;;;;;;6.91;83.94;100772.28;5242570;28;20502;-67
2023/04/14 00:50:56;;;;;;;17.27;7.97;;;;;;;6.87;85.82;100770.84;5242749;28;20074;-68
2023/04/14 00:53:27;;;;;;;10.15;6.05;;;;;;;6.81;85.40;100769.50;5242077;28;20451;-68
2023/04/14 00:55:59;;;;;;;13.23;5.97;;;;;;;6.77;85.38;100778.44;5242411;28;20043;-68
2023/04/14 00:58:31;;;;;;;11.32;6.25;;;;;;;6.72;86.31;100784.00;5239529;28;20457;-68
2023/04/14 01:01:02;;;;;;;12.45;6.00;;;;;;;6.68;86.55;100782.53;5239210;28;20033;-68
2023/04/14 01:03:35;;;;;;;11.15;4.97;;;;;;;6.64;87.12;100775.88;5239863;28;20033;-68
2023/04/14 01:06:07;;;;;;;12.52;4.80;;;;;;;6.58;87.98;100761.50;5241361;28;20873;-68
2023/04/14 01:08:38;;;;;;;7.97;4.95;;;;;;;6.55;88.13;100786.91;5240750;28;20029;-68
2023/04/14 01:11:16;;;;;;;9.90;4.35;;;;;;;6.63;89.63;100789.84;5238218;28;20053;-68
2023/04/14 01:13:59;;;;;;;8.63;4.38;;;;;;;6.75;88.73;100793.38;5241719;28;20021;-68
2023/04/14 01:16:33;;;;;;;7.00;3.97;;;;;;;6.60;88.56;100795.25;5242210;28;20079;-66
2023/04/14 01:19:20;;;;;;;6.10;3.90;;;;;;;6.71;89.44;100792.75;5240841;28;20025;-68
2023/04/14 01:21:56;;;;;;;9.88;4.20;;;;;;;6.60;89.36;100789.22;5246732;28;20041;-67
2023/04/14 01:24:59;;;;;;;11.10;3.95;;;;;;;6.74;89.89;100783.88;5241214;28;20488;-68
2023/04/14 01:27:47;;;;;;;11.32;3.50;;;;;;;6.43;91.18;100791.19;5240397;28;20029;-68
2023/04/14 01:30:37;;;;;;;9.55;3.90;;;;;;;6.57;92.29;100785.06;5237216;28;20021;-68
2023/04/14 01:33:14;;;;;;;10.50;4.25;;;;;;;6.34;93.59;100790.06;5236954;28;20028;-68
2023/04/14 01:35:51;;;;;;;8.52;3.80;;;;;;;6.37;91.97;100796.00;5242975;28;20367;-68
2023/04/14 01:38:26;;;;;;;11.20;4.00;;;;;;;6.32;92.51;100797.13;5238834;28;20096;-68
2023/04/14 01:41:03;;;;;;;9.20;4.25;;;;;;;6.27;92.81;100798.38;5236607;28;20196;-68
2023/04/14 01:43:41;;;;;;;9.82;4.03;;;;;;;6.21;96.28;100797.03;5242781;28;20040;-68
2023/04/14 01:46:16;;;;;;;10.93;4.88;;;;;;;6.21;94.61;100799.66;5240100;28;20034;-68
2023/04/14 01:48:49;;;;;;;10.43;4.90;;;;;;;6.15;96.98;100794.00;5238210;28;20267;-68
2023/04/14 01:51:22;;;;;;;9.18;4.57;;;;;;;6.15;96.10;100804.41;5240722;28;20300;-68
2023/04/14 01:53:55;;;;;;;14.13;4.93;;;;;;;6.19;97.98;100801.50;5240593;28;20076;-68
2023/04/14 01:56:28;;;;;;;9.65;4.15;;;;;;;6.13;96.21;100801.91;5237839;28;20437;-67
2023/04/14 01:59:00;;;;;;;7.37;3.90;;;;;;;6.18;96.66;100810.25;5240387;28;20062;-68
2023/04/14 02:01:33;;;;;;;8.35;3.78;;;;;;;6.16;97.52;100801.69;5242574;28;20028;-68
2023/04/14 02:04:07;;;;;;;10.07;3.38;;;;;;;6.16;98.04;100806.91;5241409;28;20029;-68
2023/04/14 02:06:39;;;;;;;7.45;4.00;;;;;;;6.14;98.67;100806.19;5236619;28;20073;-67
2023/04/14 02:09:11;;;;;;;9.75;3.72;;;;;;;6.06;99.52;100798.91;5241787;28;20403;-68
2023/04/14 02:11:44;;;;;;;11.48;4.30;;;;;;;6.07;99.16;100804.94;5243173;28;20044;-68
2023/04/14 02:14:18;;;;;;;8.63;3.72;;;;;;;6.09;100.00;100811.66;5239898;28;20029;-68
2023/04/14 02:16:52;;;;;;;10.27;3.78;;;;;;;6.12;100.00;100802.00;5242253;28;20702;-67
2023/04/14 02:19:24;;;;;;;7.63;3.40;;;;;;;5.97;100.00;100815.09;5240330;28;20044;-67
2023/04/14 02:21:57;;;;;;;9.25;3.60;;;;;;;5.94;100.00;100815.28;5242511;28;20032;-67
2023/04/14 02:24:29;;;;;;;9.63;3.30;;;;;;;5.94;100.00;100811.88;5239749;28;20040;-68
2023/04/14 02:27:17;;;;;;;10.52;3.83;;;;;;;6.06;100.00;100822.31;5245134;28;20032;-68
2023/04/14 02:29:52;;;;;;;10.63;3.45;;;;;;;6.01;100.00;100819.16;5242028;28;20431;-67
2023/04/14 02:32:27;;;;;;;11.48;3.63;;;;;;;5.85;100.00;100816.69;5241283;28;20068;-68
2023/04/14 02:35:03;;;;;;;6.63;3.22;;;;;;;5.89;100.00;100816.50;5243478;28;20103;-68
2023/04/14 02:37:41;;;;;;;8.68;3.20;;;;;;;6.00;100.00;100812.28;5244567;28;20030;-68
2023/04/14 02:40:24;;;;;;;7.60;3.63;;;;;;;6.02;100.00;100818.25;5237864;28;20033;-68
2023/04/14 02:42:59;;;;;;;;;;;;;;;6.50;95.61;100820.25;5241855;28;20491;-68
2023/04/14 02:45:32;;;;;;;8.15;4.00;;;;;;;5.88;100.00;100826.09;5238278;28;19920;-68
2023/04/14 02:48:10;;;;;;;8.85;3.58;;;;;;;5.86;100.00;100814.94;5238264;28;20025;-68
2023/04/14 02:50:46;;;;;;;6.32;3.03;;;;;;;5.80;100.00;100828.34;5240511;28;20475;-68
2023/04/14 02:53:21;;;;;;;7.75;3.20;;;;;;;5.76;100.00;100834.69;5238394;28;20116;-68
2023/04/14 02:55:52;;;;;;;9.55;2.97;;;;;;;5.64;100.00;100822.47;5238241;28;20025;-68
2023/04/14 02:58:25;;;;;;;7.82;3.28;;;;;;;5.66;100.00;100823.22;5235665;28;20088;-68
2023/04/14 03:00:57;;;;;;;9.30;3.53;;;;;;;5.71;100.00;100818.53;5240063;28;20112;-67
2023/04/14 03:03:29;;;;;;;8.07;3.03;;;;;;;5.73;100.00;100824.47;5239669;28;20021;-68
2023/04/14 03:06:01;;;;;;;8.80;3.13;;;;;;;5.70;100.00;100830.69;5245606;28;20452;-67
2023/04/14 03:08:34;;;;;;;9.10;3.35;;;;;;;5.71;100.00;100831.53;5245909;28;20033;-69
2023/04/14 03:11:06;;;;;;;7.60;3.35;;;;;;;5.69;100.00;100830.81;5239441;28;20032;-68
2023/04/14 03:13:40;;;;;;;13.30;3.72;;;;;;;5.66;100.00;100828.41;5244688;28;20033;-68
2023/04/14 03:16:12;;;;;;;7.97;3.45;;;;;;;5.63;100.00;100839.81;5243581;28;20037;-66
2023/04/14 03:18:45;;;;;;;8.80;2.85;;;;;;;5.70;100.00;100835.91;5246782;28;20307;-67
2023/04/14 03:21:18;;;;;;;7.38;3.13;;;;;;;5.73;100.00;100834.88;5244728;28;20036;-67
2023/04/14 03:23:51;;;;;;;7.95;2.55;;;;;;;5.75;100.00;100831.22;5244024;28;20040;-67
2023/04/14 03:26:26;;;;;;;8.90;3.40;;;;;;;5.70;100.00;100833.31;5243525;28;20025;-68
2023/04/14 03:29:01;;;;;;;7.18;3.28;;;;;;;5.68;100.00;100834.31;5243932;28;20490;-68
2023/04/14 03:31:35;;;;;;;6.80;3.33;;;;;;;5.64;100.00;100831.09;5240870;28;20478;-67
2023/04/14 03:34:08;;;;;;;10.38;3.45;;;;;;;5.52;100.00;100832.72;5244548;28;20029;-68
2023/04/14 03:36:42;;;;;;;8.50;3.50;;;;;;;5.54;100.00;100837.81;5247096;28;20402;-68
2023/04/14 03:39:16;;;;;;;7.40;3.58;;;;;;;5.48;100.00;100843.41;5241899;28;20071;-68
2023/04/14 03:41:50;;;;;;;9.98;3.75;;;;;;;5.45;100.00;100838.41;5241083;28;20078;-68
2023/04/14 03:44:24;;;;;;;7.45;3.03;;;;;;;5.48;100.00;100841.63;5241125;28;20072;-68
2023/04/14 03:46:55;;;;;;;6.95;3.50;;;;;;;5.51;100.00;100840.63;5242821;28;20021;-68
2023/04/14 03:49:28;;;;;;;10.55;3.60;;;;;;;5.43;100.00;100843.69;5239717;28;20036;-67
2023/04/14 03:52:04;;;;;;;10.63;3.55;;;;;;;5.59;100.00;100840.94;5240226;28;20041;-67
2023/04/14 03:54:37;;;;;;;10.30;3.58;;;;;;;5.56;100.00;100836.78;5241028;28;20036;-67
2023/04/14 03:57:12;;;;;;;8.43;3.95;;;;;;;5.53;100.00;100836.13;5241543;28;20059;-67
2023/04/14 03:59:45;;;;;;;8.00;3.17;;;;;;;5.51;100.00;100844.03;5238884;28;20029;-67
2023/04/14 04:02:18;;;;;;;9.07;3.30;;;;;;;5.43;100.00;100846.28;5240960;28;20108;-67
2023/04/14 04:04:50;;;;;;;7.00;3.17;;;;;;;5.34;100.00;100849.47;5242362;28;20025;-67
2023/04/14 04:07:24;;;;;;;10.43;3.40;;;;;;;5.41;100.00;100850.75;5242502;28;20037;-68
2023/04/14 04:09:56;;;;;;;9.52;3.97;;;;;;;5.39;100.00;100857.81;5240897;28;20032;-67
2023/04/14 04:12:29;;;;;;;8.30;3.47;;;;;;;5.37;100.00;100849.28;5241742;28;20082;-67
2023/04/14 04:15:01;;;;;;;9.73;3.75;;;;;;;5.41;100.00;100842.94;5243394;28;20024;-67
2023/04/14 04:17:33;;;;;;;8.57;3.40;;;;;;;5.45;100.00;100854.81;5239827;28;20083;-67
2023/04/14 04:20:07;;;;;;;10.80;3.22;;;;;;;5.48;100.00;100853.78;5237765;28;20482;-67
2023/04/14 04:22:40;;;;;;;10.45;4.05;;;;;;;5.49;100.00;100860.66;5238693;28;20128;-67
2023/04/14 04:25:12;;;;;;;9.98;3.70;;;;;;;5.48;100.00;100856.38;5240053;28;20095;-68
2023/04/14 04:27:44;;;;;;;9.27;3.90;;;;;;;5.49;100.00;100851.13;5241175;28;20029;-68
2023/04/14 04:30:18;;;;;;;10.52;3.53;;;;;;;5.54;100.00;100856.84;5243123;28;20072;-68
2023/04/14 04:32:50;;;;;;;7.38;3.40;;;;;;;5.53;100.00;100859.53;5244096;28;20030;-68
2023/04/14 04:35:23;;;;;;;9.77;3.50;;;;;;;5.54;100.00;100849.06;5239732;28;20039;-68
2023/04/14 04:37:55;;;;;;;;;;;;;;;6.21;100.00;100856.00;5232617;28;20187;-67
2023/04/14 04:40:26;;;;;;;7.03;3.25;;;;;;;5.66;100.00;100854.41;5241882;28;19992;-68
2023/04/14 04:42:58;;;;;;;9.93;3.72;;;;;;;5.69;100.00;100854.22;5240781;28;20619;-68
2023/04/14 04:45:44;;;;;;;7.50;3.38;;;;;;;5.84;100.00;100859.25;5241710;28;20033;-68
2023/04/14 04:48:15;;;;;;;8.63;3.50;;;;;;;5.65;100.00;100852.75;5242962;28;20064;-68
2023/04/14 04:50:47;;;;;;;5.80;3.40;;;;;;;5.59;100.00;100854.78;5239958;28;20455;-67
2023/04/14 04:53:18;;;;;;;7.40;2.92;;;;;;;5.58;100.00;100866.09;5239830;28;20028;-68
2023/04/14 04:55:49;;;;;;;6.55;3.20;;;;;;;5.58;100.00;100860.91;5232409;28;20036;-68
2023/04/14 04:58:20;;;;;;;10.75;3.72;;;;;;;5.60;100.00;100861.63;5241894;28;20083;-68
2023/04/14 05:00:53;;;;;;;9.50;3.28;;;;;;;5.59;100.00;100854.78;5239066;28;20052;-67
2023/04/14 05:03:24;;;;;;;4.95;2.90;;;;;;;5.60;100.00;100851.25;5241014;28;20025;-67
2023/04/14 05:05:58;;;;;;;7.60;3.28;;;;;;;5.65;100.00;100857.94;5240179;28;20057;-68
2023/04/14 05:08:29;;;;;;;;;;;;;;;6.30;100.00;100856.25;5243399;28;20017;-68
2023/04/14 05:11:00;;;;;;;9.00;3.38;;;;;;;5.67;100.00;100858.66;5233772;28;19917;-67
2023/04/14 05:13:32;;;;;;;7.35;3.05;;;;;;;5.58;100.00;100852.28;5241089;28;20057;-68
2023/04/14 05:16:08;;;;;;;12.18;3.83;;;;;;;5.69;100.00;100849.00;5237549;28;20045;-68
2023/04/14 05:18:40;;;;;;;9.55;3.67;;;;;;;5.53;100.00;100856.91;5241175;28;20390;-68
2023/04/14 05:21:13;;;;;;;8.90;3.35;;;;;;;5.51;100.00;100851.00;5235196;28;20035;-68
2023/04/14 05:23:45;;;;;;;7.63;4.05;;;;;;;5.55;100.00;100858.50;5237319;28;20095;-67
2023/04/14 05:26:16;;;;;;;7.43;3.60;;;;;;;5.55;100.00;100850.72;5242752;28;20128;-67
2023/04/14 05:28:48;;;;;;;12.00;4.60;;;;;;;5.71;100.00;100854.91;5239556;28;20028;-68
2023/04/14 05:31:19;;;;;;;7.10;3.78;;;;;;;5.74;100.00;100852.97;5239070;28;20037;-68
2023/04/14 05:33:50;;;;;;;11.80;4.40;;;;;;;5.78;100.00;100854.44;5241541;28;20020;-68
2023/04/14 05:36:22;;;;;;;7.43;3.90;;;;;;;5.85;100.00;100854.88;5245995;28;20279;-68
2023/04/14 05:38:53;;;;;;;8.60;4.13;;;;;;;5.93;100.00;100854.41;5240144;28;20037;-68
2023/04/14 05:41:24;;;;;;;6.82;3.42;;;;;;;6.02;100.00;100856.41;5240622;28;20031;-67
2023/04/14 05:43:56;;;;;;;7.85;3.00;;;;;;;6.08;100.00;100856.84;5244262;28;20084;-67
2023/04/14 05:46:27;;;;;;;8.23;4.05;;;;;;;6.16;100.00;100853.72;5243050;28;20700;-68
2023/04/14 05:48:59;;;;;;;8.80;3.80;;;;;;;6.29;100.00;100845.97;5241983;28;20040;-68
2023/04/14 05:51:31;;;;;;;9.15;3.35;;;;;;;6.39;100.00;100846.97;5231113;28;20170;-68
2023/04/14 05:54:02;;;;;;;9.05;3.65;;;;;;;6.38;100.00;100853.13;5239579;28;20104;-67
2023/04/14 05:56:34;;;;;;;10.93;3.40;;;;;;;6.45;100.00;100857.00;5239621;28;20059;-68
2023/04/14 05:59:05;;;;;;;9.27;3.42;;;;;;;6.47;100.00;100847.31;5237247;28;20116;-67
2023/04/14 06:01:36;;;;;;;8.98;3.40;;;;;;;6.52;100.00;100849.63;5235214;28;20035;-67
2023/04/14 06:04:07;;;;;;;9.27;3.72;;;;;;;6.69;100.00;100859.69;5232629;28;20233;-68
2023/04/14 06:06:39;;;;;;;8.27;3.17;;;;;;;6.73;100.00;100855.13;5238578;28;20505;-68
2023/04/14 06:09:10;;;;;;;10.07;3.30;;;;;;;6.72;100.00;100864.69;5238774;28;20091;-67
2023/04/14 06:11:42;;;;;;;7.20;3.47;;;;;;;6.76;100.00;100858.34;5239066;28;22326;-67
2023/04/14 06:14:13;;;;;;;9.02;3.67;;;;;;;6.81;100.00;100860.63;5224623;28;20035;-68
2023/04/14 06:16:45;;;;;;;8.32;3.85;;;;;;;6.85;100.00;100866.47;5235803;28;20436;-68
2023/04/14 06:19:17;;;;;;;8.60;3.30;;;;;;;6.89;100.00;100860.09;5230634;28;20576;-67
2023/04/14 06:21:48;;;;;;;9.10;3.83;;;;;;;6.99;100.00;100859.34;5235594;28;20037;-68
2023/04/14 06:24:20;;;;;;;8.77;3.63;;;;;;;7.06;100.00;100863.19;5239623;28;20026;-67
2023/04/14 06:26:51;;;;;;;9.13;3.28;;;;;;;7.14;100.00;100854.84;5237819;28;20026;-67
2023/04/14 06:29:22;;;;;;;8.50;3.20;;;;;;;7.25;100.00;100860.13;5239505;28;20028;-67
2023/04/14 06:31:54;;;;;;;7.80;2.92;;;;;;;7.32;100.00;100853.56;5239141;28;20370;-68
2023/04/14 06:34:25;;;;;;;6.75;3.33;;;;;;;7.41;100.00;100853.84;5237006;28;20626;-68
2023/04/14 06:36:57;;;;;;;11.18;4.03;;;;;;;7.52;100.00;100841.69;5237866;28;20024;-68
2023/04/14 06:39:29;;;;;;;7.35;3.53;;;;;;;7.64;100.00;100839.16;5241883;28;20029;-68
2023/04/14 06:42:00;;;;;;;8.88;3.20;;;;;;;7.77;100.00;100834.72;5238884;28;20056;-68
2023/04/14 06:44:31;;;;;;;7.68;3.17;;;;;;;7.90;100.00;100835.47;5236530;28;20037;-68
2023/04/14 06:47:03;;;;;;;7.88;3.33;;;;;;;7.98;100.00;100835.72;5242268;28;20030;-68
2023/04/14 06:49:35;;;;;;;9.25;3.20;;;;;;;8.13;100.00;100838.16;5239693;28;20028;-68
2023/04/14 06:52:07;;;;;;;7.50;3.45;;;;;;;8.33;100.00;100832.25;5237870;28;20817;-68
2023/04/14 06:54:38;;;;;;;6.35;3.30;;;;;;;8.39;100.00;100829.22;5237753;28;20111;-68
2023/04/14 06:57:09;;;;;;;7.10;3.67;;;;;;;8.55;99.17;100828.06;5238809;28;20098;-68
2023/04/14 06:59:41;;;;;;;7.13;3.30;;;;;;;8.70;93.05;100829.50;5240677;28;20025;-68
2023/04/14 07:02:12;;;;;;;8.70;3.38;;;;;;;8.81;92.70;100821.66;5233874;28;20103;-68
2023/04/14 07:04:43;;;;;;;5.50;3.00;;;;;;;8.90;92.54;100810.50;5243730;28;20025;-68
2023/04/14 07:07:14;;;;;;;7.88;3.30;;;;;;;9.09;90.94;100820.34;5241237;28;20589;-68
2023/04/14 07:09:46;;;;;;;6.22;2.90;;;;;;;9.30;90.49;100822.19;5240933;28;20574;-68
2023/04/14 07:12:17;;;;;;;7.93;2.97;;;;;;;9.37;90.86;100820.75;5239323;28;21288;-68
2023/04/14 07:14:51;;;;;;;9.00;3.03;;;;;;;9.42;89.41;100823.81;5243182;28;20596;-67
2023/04/14 07:17:22;;;;;;;7.15;3.45;;;;;;;9.57;88.63;100817.34;5239334;28;20091;-68
2023/04/14 07:19:54;;;;;;;5.43;3.00;;;;;;;9.73;88.94;100812.53;5239276;28;20033;-68
2023/04/14 07:22:25;;;;;;;13.27;3.80;;;;;;;9.87;88.70;100819.25;5241347;28;20383;-69
2023/04/14 07:24:56;;;;;;;5.68;2.97;;;;;;;10.01;83.45;100812.06;5244692;28;20313;-68
2023/04/14 07:27:28;;;;;;;9.05;3.38;;;;;;;10.10;80.96;100806.88;5242544;28;20078;-68
2023/04/14 07:29:59;;;;;;;7.60;3.00;;;;;;;10.26;77.53;100805.63;5242916;28;20033;-68
2023/04/14 07:32:31;;;;;;;6.43;2.50;;;;;;;10.40;76.59;100815.78;5239845;28;20658;-68
2023/04/14 07:35:03;;;;;;;5.17;2.50;;;;;;;10.47;77.07;100798.59;5241705;28;20115;-69
2023/04/14 07:37:35;;;;;;;6.65;2.45;;;;;;;10.56;74.99;100797.78;5243735;28;20059;-69
2023/04/14 07:40:07;;;;;;;7.65;2.88;;;;;;;10.55;69.74;100801.38;5241251;28;20029;-68
2023/04/14 07:42:38;;;;;;;6.63;3.13;;;;;;;10.66;70.93;100803.09;5241127;28;20029;-68
2023/04/14 07:45:09;;;;;;;6.40;3.15;;;;;;;10.88;69.71;100792.41;5240973;28;20497;-69
2023/04/14 07:47:41;;;;;;;6.95;2.63;;;;;;;10.93;67.92;100792.81;5240404;28;20513;-69
2023/04/14 07:50:12;;;;;;;6.35;3.03;;;;;;;11.09;71.12;100799.34;5241162;28;20037;-69
2023/04/14 07:52:43;;;;;;;6.30;2.55;;;;;;;11.28;69.94;100794.13;5246211;28;20039;-69
2023/04/14 07:55:15;;;;;;;6.80;2.60;;;;;;;11.43;65.85;100797.19;5241835;28;20029;-69
2023/04/14 07:57:46;;;;;;;8.63;2.85;;;;;;;11.56;65.72;100791.69;5242542;28;20024;-68
2023/04/14 08:00:18;;;;;;;5.43;2.40;;;;;;;11.76;64.63;100795.16;5228825;28;20637;-67
2023/04/14 08:02:49;;;;;;;6.65;2.63;;;;;;;11.73;59.86;100801.50;5242156;28;20055;-69
2023/04/14 08:05:20;;;;;;;6.88;3.03;;;;;;;11.87;61.71;100790.59;5241610;28;20033;-69
2023/04/14 08:07:52;;;;;;;6.68;2.88;;;;;;;11.99;59.34;100795.72;5236108;28;20029;-69
2023/04/14 08:10:25;;;;;;;5.65;2.05;;;;;;;12.14;60.00;100795.13;5238828;28;20025;-68
2023/04/14 08:12:56;;;;;;;5.78;1.63;;;;;;;12.18;57.23;100796.50;5239513;28;20525;-69
2023/04/14 08:15:27;;;;;;;4.68;2.08;;;;;;;12.22;57.82;100790.97;5237149;28;20112;-68
2023/04/14 08:17:58;;;;;;;4.72;1.58;;;;;;;12.33;57.44;100786.38;5241401;28;20432;-69
2023/04/14 08:20:30;;;;;;;5.38;1.92;;;;;;;12.49;57.52;100792.81;5241031;28;20031;-69
2023/04/14 08:23:01;;;;;;;7.00;1.90;;;;;;;12.55;55.11;100792.25;5241022;28;20029;-69
2023/04/14 08:25:32;;;;;;;5.35;1.58;;;;;;;12.68;55.01;100789.28;5240711;28;20111;-68
2023/04/14 08:28:04;;;;;;;4.22;1.60;;;;;;;12.78;55.38;100784.81;5241448;28;20033;-69
2023/04/14 08:30:36;;;;;;;5.38;1.70;;;;;;;12.80;54.41;100783.69;5235060;28;20032;-70
2023/04/14 08:33:07;;;;;;;3.45;1.75;;;;;;;13.03;54.39;100785.91;5237716;28;20144;-70
2023/04/14 08:35:38;;;;;;;6.00;1.70;;;;;;;13.16;53.99;100789.03;5242673;28;20041;-69
2023/04/14 08:38:10;;;;;;;4.43;1.70;;;;;;;13.25;51.83;100779.44;5239763;28;20055;-69
2023/04/14 08:40:42;;;;;;;4.18;1.25;;;;;;;13.40;50.81;100783.22;5243797;28;20032;-69
2023/04/14 08:43:14;;;;;;;7.03;2.03;;;;;;;13.56;50.17;100780.75;5237757;28;20037;-69
2023/04/14 08:45:47;;;;;;;5.47;1.58;;;;;;;13.47;48.52;100781.63;5238127;28;20029;-69
2023/04/14 08:48:19;;;;;;;;;;;;;;;14.24;49.15;100785.34;5242630;28;20418;-68
2023/04/14 08:50:58;;;;;;;5.05;1.60;;;;;;;13.86;48.91;100783.94;5233767;28;19917;-70
2023/04/14 08:53:31;;;;;;;6.07;1.60;;;;;;;13.75;48.57;100787.66;5236431;28;20368;-68
2023/04/14 08:56:04;;;;;;;5.88;1.63;;;;;;;13.85;49.46;100785.75;5225245;28;20127;-70
2023/04/14 08:58:37;;;;;;;7.03;1.98;;;;;;;13.99;49.76;100788.81;5233843;28;20057;-70
2023/04/14 09:01:08;;;;;;;6.68;2.08;;;;;;;13.84;48.69;100792.00;5221760;28;21024;-70
2023/04/14 09:03:40;;;;;;;3.53;1.48;;;;;;;13.98;49.03;100790.63;5233749;28;20485;-69
2023/04/14 09:06:12;;;;;;;4.35;1.38;;;;;;;14.06;48.84;100787.22;5231716;28;20103;-69
2023/04/14 09:08:44;;;;;;;4.43;1.40;;;;;;;14.27;47.91;100782.41;5232927;28;20025;-70
2023/04/14 09:11:15;;;;;;;4.78;1.30;;;;;;;14.39;48.25;100766.34;5232467;28;20028;-68
2023/04/14 09:13:48;;;;;;;5.35;1.90;;;;;;;14.51;48.17;100773.88;5236006;28;20044;-69
2023/04/14 09:16:21;;;;;;;4.80;1.65;;;;;;;14.50;47.65;100774.81;5237492;28;20021;-68
2023/04/14 09:18:52;;;;;;;7.35;2.15;;;;;;;14.54;47.34;100780.59;5236053;28;20056;-69
2023/04/14 09:21:26;;;;;;;4.03;1.73;;;;;;;14.58;46.89;100779.31;5239079;28;20767;-68
2023/04/14 09:23:57;;;;;;;3.97;1.35;;;;;;;14.64;47.25;100776.06;5242500;28;20033;-70
2023/04/14 09:26:28;;;;;;;5.18;1.60;;;;;;;14.65;47.06;100771.59;5241166;28;20128;-70
2023/04/14 09:29:00;;;;;;;5.28;1.35;;;;;;;14.82;47.54;100768.06;5237889;28;20052;-68
2023/04/14 09:31:31;;;;;;;5.28;1.73;;;;;;;14.65;47.82;100766.31;5237407;28;20119;-69
2023/04/14 09:34:03;;;;;;;3.55;1.50;;;;;;;14.71;46.80;100766.53;5238445;28;20223;-69
2023/04/14 09:36:35;;;;;;;5.25;1.80;;;;;;;14.62;47.12;100756.91;5237839;28;20025;-69
2023/04/14 09:39:15;;;;;;;3.67;1.45;;;;;;;14.82;46.92;100755.69;5236904;28;20472;-70
2023/04/14 09:41:47;;;;;;;5.72;1.92;;;;;;;14.83;46.60;100764.44;5237733;28;20035;-69
2023/04/14 09:44:18;;;;;;;6.90;1.60;;;;;;;14.70;46.79;100759.59;5231846;28;20024;-70
2023/04/14 09:47:06;;;;;;;5.85;1.40;;;;;;;14.97;46.50;100753.25;5236095;28;20030;-69
2023/04/14 09:49:54;;;;;;;4.60;1.50;;;;;;;15.27;45.69;100754.47;5241385;28;20029;-70
2023/04/14 09:52:37;;;;;;;4.95;1.65;;;;;;;15.31;44.55;100762.91;5240520;28;20040;-70
2023/04/14 09:55:13;;;;;;;6.05;1.70;;;;;;;15.23;43.88;100752.34;5235297;28;20395;-69
2023/04/14 09:57:50;;;;;;;4.03;1.63;;;;;;;15.17;43.80;100750.34;5238637;28;20056;-69
2023/04/14 10:00:23;;;;;;;4.32;1.42;;;;;;;15.58;44.21;100745.91;5230250;28;20064;-68
2023/04/14 10:02:57;;;;;;;4.40;1.52;;;;;;;15.69;42.53;100745.63;5237695;28;20445;-69
2023/04/14 10:05:30;;;;;;;4.95;1.45;;;;;;;15.70;41.73;100741.16;5248727;28;20087;-69
2023/04/14 10:08:03;;;;;;;4.57;1.40;;;;;;;15.86;42.09;100745.59;5238550;28;20041;-70
2023/04/14 10:10:34;;;;;;;5.35;1.38;;;;;;;16.04;40.19;100725.91;5239047;28;20359;-69
2023/04/14 10:13:06;;;;;;;8.10;1.58;;;;;;;15.86;41.30;100735.84;5238139;28;20041;-70
2023/04/14 10:15:37;;;;;;;4.40;1.60;;;;;;;15.72;42.05;100718.03;5239115;28;20024;-69
2023/04/14 10:18:08;;;;;;;5.00;1.60;;;;;;;15.71;42.43;100719.84;5233929;28;20104;-70
2023/04/14 10:20:41;;;;;;;5.25;1.83;;;;;;;15.70;41.58;100722.66;5236644;28;20128;-70
2023/04/14 10:23:13;;;;;;;3.63;1.45;;;;;;;15.58;40.24;100722.16;5234751;28;20033;-70
2023/04/14 10:25:47;;;;;;;6.93;1.60;;;;;;;15.54;40.99;100718.19;5233822;28;20033;-70
2023/04/14 10:28:19;;;;;;;5.28;1.70;;;;;;;15.54;42.07;100716.38;5237894;28;20070;-70
2023/04/14 10:30:53;;;;;;;5.17;2.00;;;;;;;15.54;41.81;100710.28;5195904;28;21463;-69
2023/04/14 10:33:24;;;;;;;6.03;1.70;;;;;;;15.50;41.55;100711.59;5219552;28;20035;-69
2023/04/14 10:36:00;;;;;;;4.28;1.70;;;;;;;15.78;41.54;100701.53;5238699;28;20025;-68
2023/04/14 10:38:43;;;;;;;3.83;1.40;;;;;;;16.21;41.58;100704.72;5229770;28;20541;-70
2023/04/14 10:41:14;;;;;;;4.95;1.40;;;;;;;16.19;40.30;100694.34;5236238;28;20052;-69
2023/04/14 10:43:46;;;;;;;4.20;1.80;;;;;;;16.26;40.21;100695.31;5230952;28;20025;-69
2023/04/14 10:46:17;;;;;;;4.03;1.40;;;;;;;16.56;40.43;100692.88;5236051;28;20025;-70
2023/04/14 10:48:51;;;;;;;6.75;1.70;;;;;;;16.58;41.46;100693.50;5234665;28;20029;-69
2023/04/14 10:51:33;;;;;;;4.97;1.70;;;;;;;16.57;41.27;100691.03;5233232;28;20103;-69
2023/04/14 10:54:15;;;;;;;6.00;1.30;;;;;;;16.35;41.65;100688.16;5236060;28;20033;-69
2023/04/14 10:57:11;;;;;;;7.15;1.70;;;;;;;16.23;40.75;100690.34;5233882;28;20551;-70
2023/04/14 10:59:46;;;;;;;4.93;1.58;;;;;;;15.81;41.68;100690.63;5233660;28;20552;-69
2023/04/14 11:02:28;;;;;;;5.43;1.45;;;;;;;16.07;41.12;100681.66;5232713;28;20038;-69
2023/04/14 11:05:10;;;;;;;8.17;1.60;;;;;;;15.99;39.72;100672.75;5227841;28;20041;-70
2023/04/14 11:07:46;;;;;;;3.03;1.55;;;;;;;16.05;40.32;100681.81;5233176;28;20077;-70
2023/04/14 11:10:20;;;;;;;4.55;1.42;;;;;;;16.07;39.44;100687.78;5233044;28;20033;-70
2023/04/14 11:13:06;;;;;;;6.03;1.55;;;;;;;15.94;38.99;100680.34;5233355;28;20038;-69
2023/04/14 11:15:47;;;;;;;4.38;1.40;;;;;;;16.36;38.71;100673.13;5230584;28;20394;-70
2023/04/14 11:18:31;;;;;;;5.03;1.50;;;;;;;16.11;38.68;100673.22;5227961;28;20033;-69
2023/04/14 11:21:08;;;;;;;4.65;1.80;;;;;;;15.91;38.72;100670.16;5232321;28;20413;-69
2023/04/14 11:23:40;;;;;;;6.25;1.65;;;;;;;15.84;39.23;100677.09;5234058;28;20025;-69
2023/04/14 11:26:14;;;;;;;5.65;1.30;;;;;;;16.22;39.95;100669.38;5236512;28;20157;-70
2023/04/14 11:28:46;;;;;;;6.95;1.50;;;;;;;16.24;38.65;100670.84;5232904;28;20648;-70
2023/04/14 11:31:17;;;;;;;4.82;1.67;;;;;;;16.25;39.49;100661.94;5235850;28;20032;-70
2023/04/14 11:33:49;;;;;;;6.75;1.60;;;;;;;16.46;39.52;100671.09;5237803;28;20030;-70
2023/04/14 11:36:21;;;;;;;5.95;1.63;;;;;;;16.64;38.84;100665.56;5235629;28;20686;-69
2023/04/14 11:38:52;;;;;;;4.30;1.60;;;;;;;16.75;38.63;100668.66;5232252;28;20091;-70
2023/04/14 11:41:24;;;;;;;5.32;1.40;;;;;;;16.98;38.50;100666.03;5231278;28;20451;-69
2023/04/14 11:43:56;;;;;;;8.25;2.08;;;;;;;17.13;38.07;100660.78;5237414;28;20112;-70
2023/04/14 11:46:27;;;;;;;4.65;1.42;;;;;;;17.01;36.81;100667.50;5232368;28;20064;-70
2023/04/14 11:48:59;;;;;;;4.03;1.40;;;;;;;17.07;36.59;100658.84;5229980;28;20103;-70
2023/04/14 11:51:31;;;;;;;5.95;1.70;;;;;;;16.97;36.48;100663.53;5231164;28;20468;-69
2023/04/14 11:54:02;;;;;;;4.87;1.30;;;;;;;16.90;36.35;100658.16;5228818;28;20744;-70